createdAt,value
2019-03-25T00:02:37.424Z,101339.42
2019-03-25T00:05:48.093Z,101321.73
2019-03-25T00:09:05.014Z,101315.25
2019-03-25T00:12:08.818Z,101306.62
2019-03-25T00:15:18.425Z,101299.45
2019-03-25T00:18:27.933Z,101290.52
2019-03-25T00:21:37.407Z,101286.94
2019-03-25T00:24:46.950Z,101277.08
2019-03-25T00:27:56.420Z,101277.75
2019-03-25T00:31:06.145Z,101262.02
2019-03-25T00:34:15.786Z,101258.15
2019-03-25T00:37:25.384Z,101255.20
2019-03-25T00:40:34.996Z,101246.47
2019-03-25T00:43:44.449Z,101233.25
2019-03-25T00:46:53.776Z,101227.21
2019-03-25T00:50:03.221Z,101216.94
2019-03-25T00:53:12.624Z,101205.93
2019-03-25T00:56:22.063Z,101201.61
2019-03-25T00:59:41.754Z,101181.78
2019-03-25T01:02:51.159Z,101177.11
2019-03-25T01:06:00.600Z,101160.77
2019-03-25T01:09:20.266Z,101153.42
2019-03-25T01:12:29.577Z,101167.48
2019-03-25T01:15:39.017Z,101146.05
2019-03-25T01:18:58.944Z,101140.36
2019-03-25T01:22:08.297Z,101130.11
2019-03-25T01:25:17.822Z,101127.61
2019-03-25T01:28:37.489Z,101120.11
2019-03-25T01:31:46.901Z,101111.77
2019-03-25T01:34:56.286Z,101116.02
2019-03-25T01:38:16.076Z,101112.05
2019-03-25T01:41:25.396Z,101101.95
2019-03-25T01:44:34.790Z,101094.68
2019-03-25T01:47:54.626Z,101093.84
2019-03-25T01:51:04.043Z,101077.63
2019-03-25T01:54:13.445Z,101077.70
2019-03-25T01:57:33.083Z,101074.58
2019-03-25T02:00:42.478Z,101076.93
2019-03-25T02:03:51.995Z,101081.21
2019-03-25T02:07:12.030Z,101078.90
2019-03-25T02:10:21.325Z,101079.89
2019-03-25T02:13:30.641Z,101081.50
2019-03-25T02:16:50.205Z,101071.65
2019-03-25T02:19:59.600Z,101078.40
2019-03-25T02:23:09.351Z,101079.53
2019-03-25T02:26:19.214Z,101072.33
2019-03-25T02:29:28.730Z,101071.44
2019-03-25T02:32:38.042Z,101063.75
2019-03-25T02:35:47.447Z,101060.95
2019-03-25T02:39:08.248Z,101046.73
2019-03-25T02:42:17.638Z,101044.17
2019-03-25T02:45:27.039Z,101053.41
2019-03-25T02:48:36.465Z,101054.77
2019-03-25T02:51:56.149Z,101051.52
2019-03-25T02:55:05.952Z,101042.32
2019-03-25T02:58:15.510Z,101039.69
2019-03-25T03:01:24.804Z,101038.69
2019-03-25T03:04:34.327Z,101035.72
2019-03-25T03:07:43.837Z,101038.30
2019-03-25T03:10:53.268Z,101028.43
2019-03-25T03:14:03.075Z,101026.91
2019-03-25T03:17:12.470Z,101030.09
2019-03-25T03:20:32.321Z,101023.14
2019-03-25T03:23:41.746Z,101018.03
2019-03-25T03:26:51.168Z,101018.41
2019-03-25T03:30:11.811Z,100996.33
2019-03-25T03:33:21.415Z,101001.07
2019-03-25T03:36:30.891Z,101003.75
2019-03-25T03:39:40.392Z,100986.91
2019-03-25T03:42:50.063Z,101010.92
2019-03-25T03:45:59.680Z,101014.95
2019-03-25T03:49:09.068Z,101025.97
2019-03-25T03:52:18.562Z,101011.34
2019-03-25T03:55:40.632Z,101002.48
2019-03-25T03:58:50.346Z,101000.53
2019-03-25T04:01:59.631Z,101001.09
2019-03-25T04:05:09.058Z,100999.55
2019-03-25T04:08:28.876Z,100995.19
2019-03-25T04:11:38.264Z,101001.30
2019-03-25T04:14:47.788Z,101005.50
2019-03-25T04:18:07.351Z,101003.97
2019-03-25T04:21:16.943Z,101007.23
2019-03-25T04:24:26.259Z,101002.45
2019-03-25T04:27:45.899Z,101005.39
2019-03-25T04:30:55.409Z,101006.91
2019-03-25T04:34:04.803Z,101002.66
2019-03-25T04:37:24.477Z,101003.67
2019-03-25T04:40:33.884Z,101001.69
2019-03-25T04:43:43.389Z,100992.73
2019-03-25T04:47:03.098Z,101004.88
2019-03-25T04:50:12.774Z,101005.46
2019-03-25T04:53:22.183Z,101000.99
2019-03-25T04:56:39.671Z,101004.59
2019-03-25T04:59:42.722Z,101009.50
2019-03-25T05:03:02.366Z,101012.92
2019-03-25T05:06:11.797Z,101018.23
2019-03-25T05:09:21.194Z,101012.08
2019-03-25T05:12:40.934Z,101007.44
2019-03-25T05:15:50.453Z,101005.03
2019-03-25T05:18:59.953Z,101001.30
2019-03-25T05:22:11.120Z,101004.86
2019-03-25T05:25:20.743Z,101004.86
2019-03-25T05:28:40.255Z,100999.02
2019-03-25T05:31:49.581Z,101001.30
2019-03-25T05:34:58.995Z,101000.63
2019-03-25T05:38:18.841Z,100993.80
2019-03-25T05:41:28.263Z,100995.02
2019-03-25T05:44:37.591Z,100986.39
2019-03-25T05:47:57.405Z,100987.03
2019-03-25T05:51:06.843Z,100994.79
2019-03-25T05:54:16.360Z,101000.23
2019-03-25T05:57:35.979Z,100999.40
2019-03-25T06:00:45.382Z,101009.66
2019-03-25T06:03:54.808Z,101003.45
2019-03-25T06:07:14.539Z,101005.39
2019-03-25T06:10:23.949Z,100996.30
2019-03-25T06:13:33.378Z,101004.17
2019-03-25T06:16:53.199Z,101007.97
2019-03-25T06:20:02.616Z,101015.77
2019-03-25T06:23:11.972Z,101011.71
2019-03-25T06:26:31.662Z,101011.52
2019-03-25T06:29:41.010Z,101019.72
2019-03-25T06:32:50.383Z,101020.80
2019-03-25T06:35:59.782Z,101018.81
2019-03-25T06:39:09.691Z,101020.63
2019-03-25T06:42:29.463Z,101020.56
2019-03-25T06:45:38.886Z,101012.07
2019-03-25T06:48:48.318Z,101011.61
2019-03-25T06:51:57.904Z,101014.52
2019-03-25T06:55:08.484Z,101010.72
2019-03-25T06:58:19.026Z,101013.30
2019-03-25T07:01:28.470Z,101012.44
2019-03-25T07:04:38.042Z,101007.38
2019-03-25T07:07:47.473Z,101000.55
2019-03-25T07:11:07.452Z,101006.23
2019-03-25T07:14:17.315Z,101010.00
2019-03-25T07:17:36.946Z,101010.80
2019-03-25T07:20:46.453Z,101011.73
2019-03-25T07:23:55.947Z,101006.87
2019-03-25T07:27:05.368Z,101012.47
2019-03-25T07:30:15.269Z,101028.59
2019-03-25T07:33:24.607Z,101027.86
2019-03-25T07:36:34.202Z,101027.19
2019-03-25T07:39:54.121Z,101024.47
2019-03-25T07:43:03.621Z,101030.19
2019-03-25T07:46:13.122Z,101036.42
2019-03-25T07:49:22.559Z,101039.66
2019-03-25T07:52:31.974Z,101044.12
2019-03-25T07:55:51.762Z,101046.89
2019-03-25T07:59:01.171Z,101047.99
2019-03-25T08:02:10.714Z,101062.34
2019-03-25T08:05:20.417Z,101067.00
2019-03-25T08:08:30.018Z,101058.21
2019-03-25T08:11:39.517Z,101059.27
2019-03-25T08:14:49.193Z,101065.27
2019-03-25T08:17:59.191Z,101067.69
2019-03-25T08:21:19.090Z,101070.20
2019-03-25T08:24:28.791Z,101073.38
2019-03-25T08:27:38.194Z,101074.67
2019-03-25T08:30:47.604Z,101075.80
2019-03-25T08:33:56.975Z,101085.58
2019-03-25T08:37:06.332Z,101090.08
2019-03-25T08:40:16.061Z,101092.49
2019-03-25T08:43:25.615Z,101102.30
2019-03-25T08:46:35.248Z,101108.14
2019-03-25T08:49:44.708Z,101116.38
2019-03-25T08:52:54.123Z,101131.99
2019-03-25T08:56:03.529Z,101122.86
2019-03-25T08:59:23.211Z,101135.11
2019-03-25T09:02:32.621Z,101141.26
2019-03-25T09:05:42.064Z,101144.34
2019-03-25T09:09:02.068Z,101144.48
2019-03-25T09:12:11.550Z,101149.33
2019-03-25T09:15:21.421Z,101159.25
2019-03-25T09:18:30.860Z,101164.84
2019-03-25T09:21:40.453Z,101166.28
2019-03-25T09:24:50.085Z,101167.81
2019-03-25T09:28:01.002Z,101163.17
2019-03-25T09:31:15.198Z,101167.05
2019-03-25T09:34:24.723Z,101171.86
2019-03-25T09:37:44.466Z,101182.86
2019-03-25T09:40:54.067Z,101183.09
2019-03-25T09:44:03.628Z,101188.30
2019-03-25T09:47:13.064Z,101192.66
2019-03-25T09:50:22.489Z,101197.05
2019-03-25T09:53:42.174Z,101196.77
2019-03-25T09:56:51.719Z,101211.66
2019-03-25T10:00:01.222Z,101212.33
2019-03-25T10:03:11.198Z,101218.44
2019-03-25T10:06:20.824Z,101223.65
2019-03-25T10:09:30.140Z,101237.52
2019-03-25T10:12:39.628Z,101237.58
2019-03-25T10:15:49.257Z,101234.80
2019-03-25T10:18:58.694Z,101230.05
2019-03-25T10:22:18.406Z,101229.36
2019-03-25T10:25:27.770Z,101231.69
2019-03-25T10:28:47.882Z,101234.27
2019-03-25T10:31:58.517Z,101239.77
2019-03-25T10:35:08.917Z,101247.99
2019-03-25T10:38:19.869Z,101255.55
2019-03-25T10:41:33.949Z,101266.38
2019-03-25T10:44:55.413Z,101275.13
2019-03-25T10:48:04.941Z,101282.31
2019-03-25T10:51:14.400Z,101285.84
2019-03-25T10:54:34.177Z,101283.52
2019-03-25T10:57:43.893Z,101281.02
2019-03-25T11:01:03.658Z,101291.09
2019-03-25T11:04:13.394Z,101290.13
2019-03-25T11:07:22.914Z,101289.83
2019-03-25T11:10:32.527Z,101293.65
2019-03-25T11:13:41.980Z,101302.94
2019-03-25T11:16:51.675Z,101301.15
2019-03-25T11:20:01.321Z,101308.95
2019-03-25T11:23:10.991Z,101321.20
2019-03-25T11:26:19.610Z,101327.53
2019-03-25T11:29:29.456Z,101327.24
2019-03-25T11:32:39.092Z,101341.84
2019-03-25T11:35:48.806Z,101348.86
2019-03-25T11:38:58.256Z,101353.29
2019-03-25T11:42:18.222Z,101346.49
2019-03-25T11:45:27.669Z,101354.76
2019-03-25T11:48:37.158Z,101353.16
2019-03-25T11:51:56.779Z,101349.13
2019-03-25T11:55:06.963Z,101348.85
2019-03-25T11:58:26.678Z,101345.95
2019-03-25T12:01:36.185Z,101348.90
2019-03-25T12:04:45.669Z,101348.06
2019-03-25T12:07:55.223Z,101363.23
2019-03-25T12:11:04.722Z,101361.58
2019-03-25T12:14:14.835Z,101375.02
2019-03-25T12:17:24.183Z,101372.37
2019-03-25T12:20:33.689Z,101376.41
2019-03-25T12:23:43.233Z,101375.20
2019-03-25T12:26:52.589Z,101382.73
2019-03-25T12:30:02.078Z,101390.59
2019-03-25T12:33:22.038Z,101397.95
2019-03-25T12:36:31.574Z,101394.78
2019-03-25T12:39:51.681Z,101387.01
2019-03-25T12:43:01.143Z,101400.95
2019-03-25T12:46:10.709Z,101402.26
2019-03-25T12:49:20.320Z,101421.86
2019-03-25T12:52:29.643Z,101419.72
2019-03-25T12:55:49.478Z,101431.66
2019-03-25T12:58:58.925Z,101433.27
2019-03-25T13:02:08.403Z,101422.45
2019-03-25T13:15:49.490Z,101432.02
2019-03-25T13:18:58.816Z,101424.26
2019-03-25T13:22:09.279Z,101432.91
2019-03-25T13:25:18.732Z,101441.23
2019-03-25T13:28:38.454Z,101450.33
2019-03-25T13:31:50.550Z,101461.34
2019-03-25T13:34:59.188Z,101473.73
2019-03-25T13:38:08.715Z,101477.13
2019-03-25T13:41:18.517Z,101481.33
2019-03-25T13:44:27.882Z,101493.70
2019-03-25T13:47:37.578Z,101497.27
2019-03-25T13:50:47.014Z,101500.58
2019-03-25T13:53:56.427Z,101496.05
2019-03-25T13:57:16.217Z,101494.92
2019-03-25T14:00:38.981Z,101496.56
2019-03-25T14:03:58.748Z,101487.95
2019-03-25T14:07:08.202Z,101499.96
2019-03-25T14:10:19.091Z,101498.81
2019-03-25T14:13:48.663Z,101492.17
2019-03-25T14:16:50.020Z,101502.16
2019-03-25T14:19:59.433Z,101511.23
2019-03-25T14:23:20.353Z,101513.45
2019-03-25T14:26:41.002Z,101518.11
2019-03-25T14:29:50.419Z,101525.37
2019-03-25T14:33:01.449Z,101520.22
2019-03-25T14:36:10.968Z,101521.77
2019-03-25T14:39:30.657Z,101527.34
2019-03-25T14:42:40.115Z,101539.00
2019-03-25T14:45:49.740Z,101540.79
2019-03-25T14:48:59.179Z,101558.44
2019-03-25T14:52:08.629Z,101558.06
2019-03-25T14:55:29.584Z,101574.23
2019-03-25T14:58:39.028Z,101585.27
2019-03-25T15:01:51.365Z,101594.84
2019-03-25T15:04:59.712Z,101601.65
2019-03-25T15:08:09.160Z,101592.81
2019-03-25T15:11:18.729Z,101593.36
2019-03-25T15:14:28.222Z,101612.44
2019-03-25T15:17:37.791Z,101602.05
2019-03-25T15:20:57.509Z,101599.44
2019-03-25T15:24:06.976Z,101606.30
2019-03-25T15:27:16.394Z,101616.45
2019-03-25T15:30:36.557Z,101632.56
2019-03-25T15:33:46.068Z,101640.02
2019-03-25T15:37:05.909Z,101640.50
2019-03-25T15:40:17.497Z,101649.27
2019-03-25T15:43:37.289Z,101663.45
2019-03-25T15:46:55.301Z,101670.22
2019-03-25T15:49:58.012Z,101686.62
2019-03-25T15:53:07.477Z,101687.80
2019-03-25T15:56:16.913Z,101696.19
2019-03-25T15:59:36.563Z,101701.28
2019-03-25T16:02:45.986Z,101708.09
2019-03-25T16:05:55.332Z,101715.05
2019-03-25T16:09:15.113Z,101722.47
2019-03-25T16:12:24.548Z,101736.22
2019-03-25T16:15:45.680Z,101742.84
2019-03-25T16:18:55.268Z,101741.59
2019-03-25T16:22:04.700Z,101751.25
2019-03-25T16:25:27.753Z,101760.25
2019-03-25T16:28:47.269Z,101765.14
2019-03-25T16:31:55.196Z,101775.97
2019-03-25T16:35:04.960Z,101788.38
2019-03-25T16:38:14.314Z,101796.84
2019-03-25T16:41:23.904Z,101802.47
2019-03-25T16:44:33.426Z,101813.47
2019-03-25T16:47:42.969Z,101828.23
2019-03-25T16:51:02.833Z,101826.58
2019-03-25T16:54:12.186Z,101834.24
2019-03-25T16:57:21.502Z,101834.74
2019-03-25T17:00:41.212Z,101841.96
2019-03-25T17:03:51.764Z,101846.38
2019-03-25T17:07:01.206Z,101850.36
2019-03-25T17:10:10.819Z,101855.42
2019-03-25T17:13:20.262Z,101862.81
2019-03-25T17:16:29.740Z,101871.08
2019-03-25T17:19:49.479Z,101877.01
2019-03-25T17:22:58.925Z,101883.91
2019-03-25T17:26:08.376Z,101892.28
2019-03-25T17:29:28.279Z,101895.64
2019-03-25T17:32:37.704Z,101893.58
2019-03-25T17:35:47.147Z,101903.88
2019-03-25T17:38:56.905Z,101913.31
2019-03-25T17:42:06.785Z,101923.89
2019-03-25T17:45:17.170Z,101934.16
2019-03-25T17:48:26.672Z,101945.50
2019-03-25T17:51:36.394Z,101956.05
2019-03-25T17:54:45.813Z,101950.11
2019-03-25T17:57:55.254Z,101961.86
2019-03-25T18:01:32.830Z,101980.36
2019-03-25T18:04:42.426Z,101985.47
2019-03-25T18:07:51.860Z,101994.39
2019-03-25T18:11:11.564Z,101999.75
2019-03-25T18:14:20.990Z,102009.80
2019-03-25T18:17:30.450Z,102016.45
2019-03-25T18:20:41.265Z,102031.08
2019-03-25T18:23:51.760Z,102036.09
2019-03-25T18:27:01.287Z,102044.22
2019-03-25T18:30:11.976Z,102041.62
2019-03-25T18:33:31.613Z,102049.71
2019-03-25T18:36:41.115Z,102047.06
2019-03-25T18:39:50.539Z,102048.05
2019-03-25T18:43:10.229Z,102052.86
2019-03-25T18:46:19.746Z,102061.80
2019-03-25T18:49:29.256Z,102069.65
2019-03-25T18:52:38.793Z,102074.56
2019-03-25T18:55:48.348Z,102082.00
2019-03-25T18:58:57.887Z,102088.98
2019-03-25T19:02:07.348Z,102098.11
2019-03-25T19:05:27.241Z,102095.63
2019-03-25T19:08:38.379Z,102099.06
2019-03-25T19:11:49.728Z,102100.08
2019-03-25T19:14:59.139Z,102108.49
2019-03-25T19:18:08.650Z,102117.91
2019-03-25T19:21:18.151Z,102113.72
2019-03-25T19:24:27.772Z,102111.94
2019-03-25T19:27:37.225Z,102118.35
2019-03-25T19:30:45.267Z,102125.77
2019-03-25T19:34:04.930Z,102134.03
2019-03-25T19:37:14.401Z,102145.37
2019-03-25T19:40:23.947Z,102154.11
2019-03-25T19:43:33.964Z,102166.64
2019-03-25T19:46:55.155Z,102159.29
2019-03-25T19:50:15.324Z,102162.53
2019-03-25T19:53:24.750Z,102172.14
2019-03-25T19:56:34.095Z,102170.81
2019-03-25T19:59:43.564Z,102174.25
2019-03-25T20:02:53.040Z,102170.00
2019-03-25T20:06:12.690Z,102174.36
2019-03-25T20:09:22.205Z,102169.80
2019-03-25T20:12:31.499Z,102168.92
2019-03-25T20:15:51.222Z,102176.23
2019-03-25T20:19:00.584Z,102172.86
2019-03-25T20:22:10.102Z,102168.98
2019-03-25T20:25:29.945Z,102175.04
2019-03-25T20:28:40.165Z,102172.95
2019-03-25T20:31:50.667Z,102179.95
2019-03-25T20:35:00.382Z,102178.34
2019-03-25T20:38:20.475Z,102178.38
2019-03-25T20:41:30.180Z,102177.55
2019-03-25T20:44:39.663Z,102191.36
2019-03-25T20:47:49.100Z,102193.55
2019-03-25T20:50:58.653Z,102195.28
2019-03-25T20:54:08.221Z,102199.59
2019-03-25T20:57:17.714Z,102208.65
2019-03-25T21:00:52.178Z,102203.51
2019-03-25T21:04:01.710Z,102209.13
2019-03-25T21:07:21.517Z,102215.09
2019-03-25T21:10:31.033Z,102228.05
2019-03-25T21:13:40.546Z,102236.67
2019-03-25T21:16:50.044Z,102240.52
2019-03-25T21:19:59.623Z,102240.11
2019-03-25T21:23:19.254Z,102241.80
2019-03-25T21:26:28.609Z,102248.69
2019-03-25T21:29:37.991Z,102254.29
2019-03-25T21:32:58.813Z,102261.16
2019-03-25T21:36:18.783Z,102271.01
2019-03-25T21:39:28.186Z,102266.31
2019-03-25T21:42:37.582Z,102255.58
2019-03-25T21:45:57.357Z,102261.55
2019-03-25T21:49:06.872Z,102261.16
2019-03-25T21:52:16.357Z,102260.31
2019-03-25T21:55:25.933Z,102264.68
2019-03-25T21:58:35.343Z,102268.06
2019-03-25T22:01:55.194Z,102270.23
2019-03-25T22:05:05.182Z,102265.48
2019-03-25T22:08:24.998Z,102264.20
2019-03-25T22:11:34.428Z,102279.27
2019-03-25T22:14:43.957Z,102271.53
2019-03-25T22:17:53.397Z,102279.30
2019-03-25T22:21:02.842Z,102272.84
2019-03-25T22:24:22.671Z,102268.06
2019-03-25T22:27:32.000Z,102266.81
2019-03-25T22:30:41.407Z,102270.28
2019-03-25T22:33:50.748Z,102270.73
2019-03-25T22:37:00.157Z,102267.27
2019-03-25T22:40:10.163Z,102268.55
2019-03-25T22:43:19.627Z,102271.62
2019-03-25T22:46:29.356Z,102272.05
2019-03-25T22:49:38.710Z,102278.92
2019-03-25T22:52:48.146Z,102277.20
2019-03-25T22:55:57.566Z,102270.31
2019-03-25T22:59:06.997Z,102269.88
2019-03-25T23:02:27.027Z,102273.34
2019-03-25T23:05:36.466Z,102283.23
2019-03-25T23:08:45.916Z,102279.80
2019-03-25T23:11:56.738Z,102281.52
2019-03-25T23:15:06.678Z,102287.09
2019-03-25T23:18:26.162Z,102287.09
2019-03-25T23:21:37.062Z,102289.30
2019-03-25T23:24:46.543Z,102287.98
2019-03-25T23:28:06.383Z,102281.97
2019-03-25T23:31:15.822Z,102288.84
2019-03-25T23:34:25.274Z,102298.30
2019-03-25T23:37:34.814Z,102301.73
2019-03-25T23:40:44.385Z,102308.19
2019-03-25T23:44:04.130Z,102307.75
2019-03-25T23:47:15.998Z,102307.77
2019-03-25T23:50:25.611Z,102303.89
2019-03-25T23:53:34.972Z,102323.23
2019-03-25T23:56:54.693Z,102315.06
